< Typhoon 197830 1979 Season Typhoon 197902 >
Typhoon 197901 (ALICE)
General InformationTrack Information on Google MapsDetailed Wind InformationList of All Images || NewsDisaster Info.ResourceGoogle EarthGE AnimationAtom FeedGeoJSON
Detalied Best Track (Time Zone = UTC)
Year Month Day Hour Lat. Long. Pressure (hPa) Wind (kt) Class Image Chart
1978 12 31 12 2.0 172.0 1004 0 2 Image Chart
1978 12 31 18 2.4 171.7 1002 0 2 Image Chart
1979 1 1 00 2.6 171.3 1000 0 2 Image Chart
1979 1 1 06 3.3 170.7 1000 0 2 Image Chart
1979 1 1 12 4.0 170.0 1000 0 2 Image Chart
1979 1 1 18 4.6 169.4 998 0 2 Image Chart
1979 1 2 00 5.2 168.7 990 50 4 Image Chart
1979 1 2 06 5.7 168.2 985 50 4 Image Chart
1979 1 2 12 6.2 167.7 985 50 4 Image Chart
1979 1 2 18 6.8 167.7 980 55 4 Image Chart
1979 1 3 00 7.4 168.0 980 55 4 Image Chart
1979 1 3 06 8.0 168.5 980 55 4 Image Chart
1979 1 3 12 8.8 168.5 980 55 4 Image Chart
1979 1 3 18 9.0 168.3 980 55 4 Image Chart
1979 1 4 00 9.2 168.0 980 55 4 Image Chart
1979 1 4 06 9.4 167.3 980 50 4 Image Chart
1979 1 4 12 9.5 166.6 980 50 4 Image Chart
1979 1 4 18 9.6 165.8 980 50 4 Image Chart
1979 1 5 00 9.7 165.0 980 50 4 Image Chart
1979 1 5 06 9.9 164.3 975 55 4 Image Chart
1979 1 5 12 10.2 163.5 970 55 4 Image Chart
1979 1 5 18 10.8 162.5 970 60 4 Image Chart
1979 1 6 00 11.2 161.6 965 65 5 Image Chart
1979 1 6 06 11.6 160.5 965 70 5 Image Chart
1979 1 6 12 12.0 159.5 960 70 5 Image Chart
1979 1 6 18 12.2 158.5 955 70 5 Image Chart
1979 1 7 00 12.3 157.6 950 75 5 Image Chart
1979 1 7 06 12.4 156.4 945 80 5 Image Chart
1979 1 7 12 12.5 155.1 940 85 5 Image Chart
1979 1 7 18 12.3 154.0 930 90 5 Image Chart
1979 1 8 00 12.2 152.8 930 90 5 Image Chart
1979 1 8 06 12.0 151.7 940 95 5 Image Chart
1979 1 8 12 11.9 150.4 950 95 5 Image Chart
1979 1 8 18 11.8 149.0 955 90 5 Image Chart
1979 1 9 00 11.8 147.8 960 90 5 Image Chart
1979 1 9 06 12.0 146.5 965 85 5 Image Chart
1979 1 9 12 12.2 145.4 970 80 5 Image Chart
1979 1 9 18 11.9 144.0 970 70 5 Image Chart
1979 1 10 00 11.8 143.7 970 70 5 Image Chart
1979 1 10 06 12.2 141.5 965 70 5 Image Chart
1979 1 10 12 12.3 140.3 960 70 5 Image Chart
1979 1 10 18 12.4 139.2 950 70 5 Image Chart
1979 1 11 00 12.5 138.8 945 75 5 Image Chart
1979 1 11 06 12.8 138.0 940 80 5 Image Chart
1979 1 11 12 13.2 137.5 940 80 5 Image Chart
1979 1 11 18 13.5 137.2 940 90 5 Image Chart
1979 1 12 00 13.9 137.0 945 80 5 Image Chart
1979 1 12 06 14.2 136.9 945 80 5 Image Chart
1979 1 12 12 14.5 136.7 960 75 5 Image Chart
1979 1 12 18 15.0 136.6 960 70 5 Image Chart
1979 1 13 00 15.4 136.8 965 70 5 Image Chart
1979 1 13 06 15.8 136.9 980 70 5 Image Chart
1979 1 13 12 16.1 137.0 985 65 5 Image Chart
1979 1 13 18 16.3 136.9 990 55 4 Image Chart
1979 1 14 00 16.2 136.5 990 55 4 Image Chart
1979 1 14 06 16.2 135.8 994 40 3 Image Chart
1979 1 14 12 16.3 135.0 1000 0 2 Image Chart
1979 1 14 18 16.5 134.0 1004 0 2 Image Chart
1979 1 15 00 15.0 132.0 1012 0 6 Image Chart
Japan Meteorological Agency Best Track Data | Correction Date : 1992-10-21
< Typhoon 197830 1979 Season Typhoon 197902 >

Help